Manta — WDE3873 — position and weather

sailwx.info

Track history (hours):
 
Tides and Currents Weather Stations Pressure Air Temp Water Temp Dewpoint Dewpoint Depression Visibility Wind Speed Wind Dir Waves Ship Positions

Oceanographic research ship Manta (United States)

Owner: NOAA/ NOS/ ONMS/ Flower Garden Banks NMS, Galveston, TX. More information available from US FCC via Universal Licensing System.

Last reported at 2017-Sep-08 11:37 UTC. Time now 2017-Sep-25 11:51 UTC.
Position N 30°06' W 093°19'.
Warning: this ship's position is 17 days out of date.

Length 11 m.

Type: Pleasure craft. MMSI: 338098471.

Date/timePositionNaut miles runAvg speedWind from/ knotsBaromVisibWave heightAir tempDewpointWater temp
2017-Sep-08 11:37N 30°06' W 093°19'  
2017-Sep-05 02:41N 29°31' W 094°53'212.7
2017-Sep-05 02:30N 29°33' W 094°54'612.2
2017-Sep-05 02:00N 29°38' W 094°58'5 9.7
2017-Sep-05 01:30N 29°42' W 095°01'5 0.2
2017-Sep-03 15:53N 29°44' W 095°07'1 0.5
2017-Sep-03 12:59N 29°45' W 095°06'0 0.0
2017-Sep-02 22:03N 29°46' W 095°05'2 4.3
2017-Sep-02 21:32N 29°44' W 095°03'0 1.1
2017-Sep-02 21:07N 29°44' W 095°03'2 2.2
2017-Sep-02 20:03N 29°42' W 095°01'0 4.9
2017-Sep-02 19:59N 29°42' W 095°01'2 4.5
2017-Sep-02 19:30N 29°41' W 094°59'2 4.2
2017-Sep-02 18:59N 29°42' W 095°01'3 4.3
2017-Sep-02 18:22N 29°44' W 095°03'2 1.4
2017-Sep-02 16:37N 29°42' W 095°01'1 4.7
2017-Sep-02 16:24N 29°42' W 094°60'0 0.4
2017-Sep-02 16:00N 29°42' W 094°60'1 2.9
2017-Sep-02 15:30N 29°41' W 094°59'0 0.5
2017-Sep-02 15:00N 29°40' W 094°59'0 0.3
2017-Sep-02 14:31N 29°40' W 094°59'2 3.3
2017-Sep-02 14:01N 29°39' W 094°58'510.4
2017-Sep-02 13:30N 29°34' W 094°55'90 2.3
2017-Aug-31 21:31N 30°06' W 093°18'0 0.0
2017-Aug-31 21:30N 30°06' W 093°18'  
Track history (hours):
 
Tides and Currents Weather Stations Pressure Air Temp Water Temp Dewpoint Dewpoint Depression Visibility Wind Speed Wind Dir Waves Ship Positions

Oceanographic research ship Manta (United States)

Owner: NOAA/ NOS/ ONMS/ Flower Garden Banks NMS, Galveston, TX. More information available from US FCC via Universal Licensing System.

Last reported at 2017-Sep-08 11:37 UTC. Time now 2017-Sep-25 11:51 UTC.
Position N 30°06' W 093°19'.
Warning: this ship's position is 17 days out of date.

Length 11 m.

Type: Pleasure craft. MMSI: 338098471.

Date/timePositionNaut miles runAvg speedWind from/ knotsBaromVisibWave heightAir tempDewpointWater temp
2017-Sep-08 11:37N 30°06' W 093°19'  
2017-Sep-05 02:41N 29°31' W 094°53'212.7
2017-Sep-05 02:30N 29°33' W 094°54'612.2
2017-Sep-05 02:00N 29°38' W 094°58'5 9.7
2017-Sep-05 01:30N 29°42' W 095°01'5 0.2
2017-Sep-03 15:53N 29°44' W 095°07'1 0.5
2017-Sep-03 12:59N 29°45' W 095°06'0 0.0
2017-Sep-02 22:03N 29°46' W 095°05'2 4.3
2017-Sep-02 21:32N 29°44' W 095°03'0 1.1
2017-Sep-02 21:07N 29°44' W 095°03'2 2.2
2017-Sep-02 20:03N 29°42' W 095°01'0 4.9
2017-Sep-02 19:59N 29°42' W 095°01'2 4.5
2017-Sep-02 19:30N 29°41' W 094°59'2 4.2
2017-Sep-02 18:59N 29°42' W 095°01'3 4.3
2017-Sep-02 18:22N 29°44' W 095°03'2 1.4
2017-Sep-02 16:37N 29°42' W 095°01'1 4.7
2017-Sep-02 16:24N 29°42' W 094°60'0 0.4
2017-Sep-02 16:00N 29°42' W 094°60'1 2.9
2017-Sep-02 15:30N 29°41' W 094°59'0 0.5
2017-Sep-02 15:00N 29°40' W 094°59'0 0.3
2017-Sep-02 14:31N 29°40' W 094°59'2 3.3
2017-Sep-02 14:01N 29°39' W 094°58'510.4
2017-Sep-02 13:30N 29°34' W 094°55'90 2.3
2017-Aug-31 21:31N 30°06' W 093°18'0 0.0
2017-Aug-31 21:30N 30°06' W 093°18'  

Dump ship's entire track history